Alamogordo/Holloman AFB, New Mexico
Current Conditions -  °F | °C
As of 5:58 AM on Monday 20 Oct 2014 (Local Time) from KHMN Reporting Station
Scattered Clouds Scattered Clouds  
Wind Chill: 55°   Ceiling: Unl
Heat Index: 55°   Visibility: 10mi
Dew Point: 55°   Wind: 9mph
Humidity: 100%   Direction: 330°NNW
Pressure: 30.06"   Gusts: NA
Location:  32.85°N, 106.1°W
Report Text: KHMN 201158Z AUTO 33008KT 10SM SCT150 13/13 A3006 RMK AO2 SLP130 60022 70023 T01280128 10155 20128 57019 $
Loading
Personal Weather Stations






























Interactive Weather Map
Tropical Storm Tracking
New forecast layout! Learn more

10-Day Weather Forecast

Advertisements
Track Severe Weather on mobile